createdAt,value
2018-01-11T00:00:51.387Z,0
2018-01-11T00:02:00.214Z,0
2018-01-11T00:03:09.196Z,0
2018-01-11T00:04:18.024Z,0
2018-01-11T00:05:26.855Z,0
2018-01-11T00:06:35.954Z,0
2018-01-11T00:07:44.784Z,0
2018-01-11T00:08:54.041Z,0
2018-01-11T00:10:02.868Z,0
2018-01-11T00:11:11.971Z,0
2018-01-11T00:12:20.801Z,0
2018-01-11T00:13:29.901Z,0
2018-01-11T00:14:38.778Z,0
2018-01-11T00:15:47.608Z,0
2018-01-11T00:16:56.438Z,0
2018-01-11T00:18:05.267Z,0
2018-01-11T00:19:14.094Z,0
2018-01-11T00:20:23.022Z,0
2018-01-11T00:21:31.851Z,0
2018-01-11T00:22:40.954Z,0
2018-01-11T00:23:49.783Z,0
2018-01-11T00:24:58.612Z,0
2018-01-11T00:26:07.540Z,0
2018-01-11T00:27:16.368Z,0
2018-01-11T00:28:25.198Z,0
2018-01-11T00:29:34.024Z,0
2018-01-11T00:30:42.851Z,0
2018-01-11T00:31:51.681Z,0
2018-01-11T00:33:00.508Z,0
2018-01-11T00:34:09.335Z,0
2018-01-11T00:35:18.166Z,0
2018-01-11T00:36:26.996Z,0
2018-01-11T00:37:35.825Z,0
2018-01-11T00:38:44.653Z,0
2018-01-11T00:39:53.481Z,0
2018-01-11T00:41:02.311Z,0
2018-01-11T00:42:11.136Z,0
2018-01-11T00:43:20.114Z,0
2018-01-11T00:44:28.942Z,0
2018-01-11T00:45:37.769Z,0
2018-01-11T00:46:46.599Z,0
2018-01-11T00:47:55.426Z,0
2018-01-11T00:49:04.556Z,0
2018-01-11T00:50:13.384Z,0
2018-01-11T00:51:22.210Z,0
2018-01-11T00:52:31.041Z,0
2018-01-11T00:53:39.868Z,0
2018-01-11T00:54:48.797Z,0
2018-01-11T00:55:57.627Z,0
2018-01-11T00:57:06.462Z,0
2018-01-11T00:58:15.300Z,0
2018-01-11T00:59:24.121Z,0
2018-01-11T01:00:32.997Z,0
2018-01-11T01:01:41.826Z,0
2018-01-11T01:02:50.652Z,0
2018-01-11T01:03:59.480Z,0
2018-01-11T01:05:08.312Z,0
2018-01-11T01:06:17.814Z,0
2018-01-11T01:07:26.965Z,0
2018-01-11T01:08:35.793Z,0
2018-01-11T01:09:44.622Z,0
2018-01-11T01:10:53.450Z,0
2018-01-11T01:12:02.278Z,0
2018-01-11T01:13:11.381Z,0
2018-01-11T01:14:20.207Z,0
2018-01-11T01:15:29.035Z,0
2018-01-11T01:16:37.866Z,0
2018-01-11T01:17:46.694Z,0
2018-01-11T01:18:55.522Z,0
2018-01-11T01:20:04.645Z,0
2018-01-11T01:21:13.470Z,0
2018-01-11T01:22:22.299Z,0
2018-01-11T01:23:31.478Z,0
2018-01-11T01:24:40.305Z,0
2018-01-11T01:25:49.411Z,0
2018-01-11T01:26:58.238Z,0
2018-01-11T01:28:07.067Z,0
2018-01-11T01:29:15.894Z,0
2018-01-11T01:30:24.722Z,0
2018-01-11T01:31:33.822Z,0
2018-01-11T01:32:42.926Z,0
2018-01-11T01:33:51.753Z,0
2018-01-11T01:35:00.632Z,0
2018-01-11T01:36:09.462Z,0
2018-01-11T01:37:18.288Z,0
2018-01-11T01:38:27.115Z,0
2018-01-11T01:39:35.942Z,0
2018-01-11T01:40:45.244Z,0
2018-01-11T01:41:54.072Z,0
2018-01-11T01:43:02.899Z,0
2018-01-11T01:44:11.726Z,0
2018-01-11T01:45:20.554Z,0
2018-01-11T01:46:29.531Z,0
2018-01-11T01:47:38.357Z,0
2018-01-11T01:48:47.182Z,0
2018-01-11T01:49:56.012Z,0
2018-01-11T01:51:04.839Z,0
2018-01-11T01:52:13.815Z,0
2018-01-11T01:53:22.644Z,0
2018-01-11T01:54:31.471Z,0
2018-01-11T01:55:40.301Z,0
2018-01-11T01:56:49.128Z,0
2018-01-11T01:57:58.152Z,0
2018-01-11T01:59:07.250Z,0
2018-01-11T02:00:16.075Z,0
2018-01-11T02:01:24.903Z,0
2018-01-11T02:02:33.731Z,0
2018-01-11T02:03:42.710Z,0
2018-01-11T02:04:51.537Z,0
2018-01-11T02:06:00.640Z,0
2018-01-11T02:07:09.739Z,0
2018-01-11T02:08:18.567Z,0
2018-01-11T02:09:27.394Z,0
2018-01-11T02:10:36.226Z,0
2018-01-11T02:11:45.051Z,0
2018-01-11T02:12:53.875Z,0
2018-01-11T02:14:02.707Z,0
2018-01-11T02:15:11.831Z,0
2018-01-11T02:16:20.928Z,0
2018-01-11T02:17:29.753Z,0
2018-01-11T02:18:38.578Z,0
2018-01-11T02:19:47.408Z,0
2018-01-11T02:20:56.808Z,0
2018-01-11T02:22:05.915Z,0
2018-01-11T02:23:14.742Z,0
2018-01-11T02:24:23.570Z,0
2018-01-11T02:25:32.394Z,0
2018-01-11T02:26:41.225Z,0
2018-01-11T02:27:50.323Z,0
2018-01-11T02:28:59.153Z,0
2018-01-11T02:30:07.980Z,0
2018-01-11T02:31:16.808Z,0
2018-01-11T02:32:25.886Z,0
2018-01-11T02:33:34.712Z,0
2018-01-11T02:34:43.539Z,0
2018-01-11T02:35:52.365Z,0
2018-01-11T02:37:01.468Z,0
2018-01-11T02:38:10.698Z,0
2018-01-11T02:39:19.520Z,0
2018-01-11T02:40:28.355Z,0
2018-01-11T02:41:37.176Z,0
2018-01-11T02:42:46.005Z,0
2018-01-11T02:43:54.879Z,0
2018-01-11T02:45:03.980Z,0
2018-01-11T02:46:12.810Z,0
2018-01-11T02:47:21.634Z,0
2018-01-11T02:48:31.017Z,0
2018-01-11T02:49:39.888Z,0
2018-01-11T02:50:48.716Z,0
2018-01-11T02:51:57.541Z,0
2018-01-11T02:53:06.368Z,0
2018-01-11T02:54:15.193Z,0
2018-01-11T02:55:24.546Z,0
2018-01-11T02:56:33.376Z,0
2018-01-11T02:57:42.203Z,0
2018-01-11T02:58:51.030Z,0
2018-01-11T02:59:59.860Z,0
2018-01-11T03:01:08.887Z,0
2018-01-11T03:02:17.712Z,0
2018-01-11T03:03:26.817Z,0
2018-01-11T03:04:35.642Z,0
2018-01-11T03:05:44.469Z,0
2018-01-11T03:06:53.395Z,0
2018-01-11T03:08:02.226Z,0
2018-01-11T03:09:11.061Z,0
2018-01-11T03:10:20.159Z,0
2018-01-11T03:11:28.984Z,0
2018-01-11T03:12:37.910Z,0
2018-01-11T03:13:46.735Z,0
2018-01-11T03:14:55.560Z,0
2018-01-11T03:16:04.388Z,0
2018-01-11T03:17:13.215Z,0
2018-01-11T03:18:22.343Z,0
2018-01-11T03:19:31.172Z,0
2018-01-11T03:20:39.998Z,0
2018-01-11T03:21:48.829Z,0
2018-01-11T03:22:57.651Z,0
2018-01-11T03:24:06.879Z,0
2018-01-11T03:25:15.707Z,0
2018-01-11T03:26:24.530Z,0
2018-01-11T03:27:33.356Z,0
2018-01-11T03:28:42.456Z,0
2018-01-11T03:29:51.332Z,0
2018-01-11T03:31:00.162Z,0
2018-01-11T03:32:08.997Z,0
2018-01-11T03:33:17.824Z,0
2018-01-11T03:34:26.651Z,0
2018-01-11T03:35:35.727Z,0
2018-01-11T03:36:44.557Z,0
2018-01-11T03:37:53.383Z,0
2018-01-11T03:39:02.210Z,0
2018-01-11T03:40:11.036Z,0
2018-01-11T03:41:20.162Z,0
2018-01-11T03:42:28.988Z,0
2018-01-11T03:43:37.812Z,0
2018-01-11T03:44:46.639Z,0
2018-01-11T03:45:55.465Z,0
2018-01-11T03:47:04.442Z,0
2018-01-11T03:48:13.268Z,0
2018-01-11T03:49:22.093Z,0
2018-01-11T03:50:30.920Z,0
2018-01-11T03:51:39.745Z,0
2018-01-11T03:52:48.621Z,0
2018-01-11T03:53:57.445Z,0
2018-01-11T03:55:06.268Z,0
2018-01-11T03:56:15.094Z,0
2018-01-11T03:57:23.919Z,0
2018-01-11T03:58:32.795Z,0
2018-01-11T03:59:41.632Z,0
2018-01-11T04:00:50.449Z,0
2018-01-11T04:01:59.275Z,0
2018-01-11T04:03:08.099Z,0
2018-01-11T04:04:17.026Z,0
2018-01-11T04:05:25.851Z,0
2018-01-11T04:06:34.676Z,0
2018-01-11T04:07:43.778Z,0
2018-01-11T04:08:52.603Z,0
2018-01-11T04:10:01.477Z,0
2018-01-11T04:11:10.303Z,0
2018-01-11T04:12:19.131Z,0
2018-01-11T04:13:27.955Z,0
2018-01-11T04:14:36.780Z,0
2018-01-11T04:15:45.604Z,0
2018-01-11T04:16:54.428Z,0
2018-01-11T04:18:03.258Z,0
2018-01-11T04:19:12.084Z,0
2018-01-11T04:20:21.189Z,0
2018-01-11T04:21:30.313Z,0
2018-01-11T04:22:39.139Z,0
2018-01-11T04:23:47.964Z,0
2018-01-11T04:24:56.789Z,0
2018-01-11T04:26:05.613Z,0
2018-01-11T04:27:14.688Z,0
2018-01-11T04:28:23.516Z,0
2018-01-11T04:29:32.339Z,0
2018-01-11T04:30:41.165Z,0
2018-01-11T04:31:49.987Z,0
2018-01-11T04:32:58.813Z,0
2018-01-11T04:34:07.639Z,0
2018-01-11T04:35:16.464Z,0
2018-01-11T04:36:25.288Z,0
2018-01-11T04:37:34.115Z,0
2018-01-11T04:38:42.989Z,0
2018-01-11T04:39:51.817Z,0
2018-01-11T04:41:00.645Z,0
2018-01-11T04:42:09.469Z,0
2018-01-11T04:43:18.571Z,0
2018-01-11T04:44:27.546Z,0
2018-01-11T04:45:36.373Z,0
2018-01-11T04:46:45.196Z,0
2018-01-11T04:47:54.022Z,0
2018-01-11T04:49:02.846Z,0
2018-01-11T04:50:11.824Z,0
2018-01-11T04:51:20.649Z,0
2018-01-11T04:52:29.475Z,0
2018-01-11T04:53:38.300Z,0
2018-01-11T04:54:47.402Z,0
2018-01-11T04:55:56.524Z,0
2018-01-11T04:57:05.349Z,0
2018-01-11T04:58:14.453Z,0
2018-01-11T04:59:23.282Z,0
2018-01-11T05:00:32.109Z,0
2018-01-11T05:01:40.935Z,0
2018-01-11T05:02:49.767Z,0
2018-01-11T05:03:58.867Z,0
2018-01-11T05:05:07.690Z,0
2018-01-11T05:06:16.544Z,0
2018-01-11T05:07:25.344Z,0
2018-01-11T05:08:34.166Z,0
2018-01-11T05:09:43.268Z,0
2018-01-11T05:10:52.094Z,0
2018-01-11T05:12:00.919Z,0
2018-01-11T05:13:09.794Z,0
2018-01-11T05:14:18.618Z,0
2018-01-11T05:15:27.442Z,0
2018-01-11T05:16:36.268Z,0
2018-01-11T05:17:45.091Z,0
2018-01-11T05:18:54.118Z,0
2018-01-11T05:20:02.941Z,0
2018-01-11T05:21:11.766Z,0
2018-01-11T05:22:20.589Z,0
2018-01-11T05:23:29.420Z,0
2018-01-11T05:24:38.290Z,0
2018-01-11T05:25:47.113Z,0
2018-01-11T05:26:55.940Z,0
2018-01-11T05:28:04.764Z,0
2018-01-11T05:29:13.588Z,0
2018-01-11T05:30:22.664Z,0
2018-01-11T05:31:31.491Z,0
2018-01-11T05:32:40.316Z,0
2018-01-11T05:33:49.140Z,0
2018-01-11T05:34:57.965Z,0
2018-01-11T05:36:06.841Z,0
2018-01-11T05:37:15.667Z,0
2018-01-11T05:38:24.491Z,0
2018-01-11T05:39:33.317Z,0
2018-01-11T05:40:42.140Z,0
2018-01-11T05:41:50.963Z,0
2018-01-11T05:42:59.948Z,0
2018-01-11T05:44:09.444Z,0
2018-01-11T05:45:18.544Z,0
2018-01-11T05:46:27.368Z,0
2018-01-11T05:47:36.348Z,0
2018-01-11T05:48:45.174Z,0
2018-01-11T05:49:54.266Z,0
2018-01-11T05:51:03.092Z,0
2018-01-11T05:52:11.915Z,0
2018-01-11T05:53:20.792Z,0
2018-01-11T05:54:29.615Z,0
2018-01-11T05:55:38.442Z,0
2018-01-11T05:56:47.265Z,0
2018-01-11T05:57:56.090Z,0
2018-01-11T05:59:05.016Z,0
2018-01-11T06:00:13.841Z,0
2018-01-11T06:01:22.666Z,0
2018-01-11T06:02:31.492Z,0
2018-01-11T06:03:40.314Z,0
2018-01-11T06:04:49.142Z,0
2018-01-11T06:05:57.965Z,0
2018-01-11T06:07:06.791Z,0
2018-01-11T06:08:15.614Z,0
2018-01-11T06:09:24.438Z,0
2018-01-11T06:10:33.311Z,0
2018-01-11T06:11:42.137Z,0
2018-01-11T06:12:50.967Z,0
2018-01-11T06:14:00.065Z,0
2018-01-11T06:15:08.889Z,0
2018-01-11T06:16:17.715Z,0
2018-01-11T06:17:26.537Z,0
2018-01-11T06:18:35.370Z,0
2018-01-11T06:19:44.469Z,0
2018-01-11T06:20:53.290Z,0
2018-01-11T06:22:02.215Z,0
2018-01-11T06:23:11.319Z,0
2018-01-11T06:24:20.148Z,0
2018-01-11T06:25:28.971Z,0
2018-01-11T06:26:38.070Z,0
2018-01-11T06:27:46.995Z,0
2018-01-11T06:28:55.819Z,0
2018-01-11T06:30:04.925Z,0
2018-01-11T06:31:14.024Z,0
2018-01-11T06:32:22.850Z,0
2018-01-11T06:33:31.675Z,0
2018-01-11T06:34:40.500Z,0
2018-01-11T06:35:49.325Z,0
2018-01-11T06:36:58.148Z,0
2018-01-11T06:38:06.973Z,0
2018-01-11T06:39:16.496Z,0
2018-01-11T06:40:25.321Z,0
2018-01-11T06:41:34.710Z,0
2018-01-11T06:42:43.535Z,0
2018-01-11T06:43:52.357Z,0
2018-01-11T06:45:01.280Z,0
2018-01-11T06:46:10.107Z,0
2018-01-11T06:47:18.931Z,0
2018-01-11T06:48:27.755Z,0
2018-01-11T06:49:36.581Z,0
2018-01-11T06:50:45.557Z,0
2018-01-11T06:51:54.656Z,0
2018-01-11T06:53:03.797Z,0
2018-01-11T06:54:12.622Z,0
2018-01-11T06:55:21.447Z,0
2018-01-11T06:56:30.321Z,0
2018-01-11T06:57:39.146Z,0
2018-01-11T06:58:47.972Z,0
2018-01-11T06:59:56.799Z,0
2018-01-11T07:01:05.624Z,0
2018-01-11T07:02:14.748Z,0
2018-01-11T07:03:23.574Z,0
2018-01-11T07:04:32.421Z,0
2018-01-11T07:05:41.225Z,0
2018-01-11T07:06:50.052Z,0
2018-01-11T07:07:58.928Z,0
2018-01-11T07:09:07.749Z,0
2018-01-11T07:10:16.573Z,0
2018-01-11T07:11:25.396Z,0
2018-01-11T07:12:34.498Z,0
2018-01-11T07:13:43.423Z,0
2018-01-11T07:14:52.249Z,0
2018-01-11T07:16:01.073Z,0
2018-01-11T07:17:10.179Z,0
2018-01-11T07:18:18.991Z,0
2018-01-11T07:19:27.916Z,0
2018-01-11T07:20:36.740Z,0
2018-01-11T07:21:45.565Z,0
2018-01-11T07:22:54.391Z,0
2018-01-11T07:24:03.489Z,0
2018-01-11T07:25:12.415Z,0
2018-01-11T07:26:21.243Z,5
2018-01-11T07:27:30.071Z,5
2018-01-11T07:28:38.893Z,5
2018-01-11T07:29:47.717Z,5
2018-01-11T07:30:56.543Z,5
2018-01-11T07:32:05.371Z,5
2018-01-11T07:33:14.196Z,5
2018-01-11T07:34:23.022Z,10
2018-01-11T07:35:31.845Z,10
2018-01-11T07:36:40.869Z,10
2018-01-11T07:37:49.695Z,10
2018-01-11T07:38:58.548Z,10
2018-01-11T07:40:07.350Z,15
2018-01-11T07:41:16.174Z,15
2018-01-11T07:42:25.150Z,15
2018-01-11T07:43:33.975Z,15
2018-01-11T07:44:42.801Z,15
2018-01-11T07:45:51.628Z,20
2018-01-11T07:47:00.452Z,20
2018-01-11T07:48:09.426Z,20
2018-01-11T07:49:18.251Z,25
2018-01-11T07:50:27.075Z,25
2018-01-11T07:51:35.899Z,25
2018-01-11T07:52:44.724Z,30
2018-01-11T07:53:53.646Z,30
2018-01-11T07:55:02.472Z,30
2018-01-11T07:56:11.298Z,35
2018-01-11T07:57:20.406Z,35
2018-01-11T07:58:29.232Z,35
2018-01-11T07:59:38.208Z,40
2018-01-11T08:00:47.033Z,40
2018-01-11T08:01:55.855Z,40
2018-01-11T08:03:04.680Z,40
2018-01-11T08:04:13.503Z,45
2018-01-11T08:05:22.427Z,45
2018-01-11T08:06:31.525Z,45
2018-01-11T08:07:40.349Z,50
2018-01-11T08:08:49.176Z,50
2018-01-11T08:09:58.275Z,55
2018-01-11T08:11:07.476Z,55
2018-01-11T08:12:16.301Z,55
2018-01-11T08:13:25.128Z,60
2018-01-11T08:14:34.224Z,60
2018-01-11T08:15:43.049Z,60
2018-01-11T08:16:51.974Z,65
2018-01-11T08:18:00.800Z,65
2018-01-11T08:19:09.899Z,65
2018-01-11T08:20:18.726Z,65
2018-01-11T08:21:27.549Z,70
2018-01-11T08:22:36.426Z,70
2018-01-11T08:23:45.251Z,70
2018-01-11T08:24:54.078Z,75
2018-01-11T08:26:02.899Z,75
2018-01-11T08:27:12.003Z,75
2018-01-11T08:28:21.102Z,75
2018-01-11T08:29:29.931Z,80
2018-01-11T08:30:38.756Z,80
2018-01-11T08:31:47.581Z,80
2018-01-11T08:32:56.405Z,80
2018-01-11T08:34:05.285Z,85
2018-01-11T08:35:14.109Z,85
2018-01-11T08:36:23.208Z,85
2018-01-11T08:37:32.032Z,85
2018-01-11T08:38:40.859Z,90
2018-01-11T08:39:50.084Z,90
2018-01-11T08:40:58.909Z,90
2018-01-11T08:42:07.736Z,90
2018-01-11T08:43:16.563Z,90
2018-01-11T08:44:25.388Z,95
2018-01-11T08:45:34.312Z,95
2018-01-11T08:46:43.411Z,95
2018-01-11T08:47:52.234Z,95
2018-01-11T08:49:01.060Z,100
2018-01-11T08:50:09.884Z,100
2018-01-11T08:51:18.858Z,100
2018-01-11T08:52:27.683Z,100
2018-01-11T08:53:36.560Z,100
2018-01-11T08:54:45.332Z,105
2018-01-11T08:55:54.159Z,105
2018-01-11T08:57:03.135Z,105
2018-01-11T08:58:11.963Z,105
2018-01-11T08:59:20.794Z,105
2018-01-11T09:00:29.667Z,110
2018-01-11T09:01:38.495Z,110
2018-01-11T09:02:47.368Z,110
2018-01-11T09:03:56.193Z,110
2018-01-11T09:05:05.021Z,110
2018-01-11T09:06:14.128Z,110
2018-01-11T09:07:23.226Z,115
2018-01-11T09:08:32.148Z,115
2018-01-11T09:09:40.974Z,115
2018-01-11T09:10:49.800Z,115
2018-01-11T09:11:58.627Z,115
2018-01-11T09:13:07.452Z,115
2018-01-11T09:14:16.379Z,115
2018-01-11T09:15:25.204Z,120
2018-01-11T09:16:34.030Z,120
2018-01-11T09:17:42.854Z,120
2018-01-11T09:18:51.681Z,120
2018-01-11T09:20:00.556Z,120
2018-01-11T09:21:09.382Z,120
2018-01-11T09:22:18.207Z,125
2018-01-11T09:23:27.034Z,125
2018-01-11T09:24:36.133Z,125
2018-01-11T09:25:44.958Z,125
2018-01-11T09:26:54.056Z,125
2018-01-11T09:28:02.881Z,125
2018-01-11T09:29:11.979Z,125
2018-01-11T09:30:20.806Z,130
2018-01-11T09:31:29.933Z,130
2018-01-11T09:32:38.760Z,130
2018-01-11T09:33:47.586Z,130
2018-01-11T09:34:56.412Z,130
2018-01-11T09:36:05.514Z,130
2018-01-11T09:37:14.640Z,130
2018-01-11T09:38:23.467Z,130
2018-01-11T09:39:32.293Z,135
2018-01-11T09:40:41.119Z,135
2018-01-11T09:41:49.948Z,135
2018-01-11T09:42:58.931Z,135
2018-01-11T09:44:07.757Z,135
2018-01-11T09:45:16.584Z,135
2018-01-11T09:46:25.412Z,135
2018-01-11T09:47:34.286Z,140
2018-01-11T09:48:43.161Z,140
2018-01-11T09:49:52.265Z,140
2018-01-11T09:51:01.091Z,140
2018-01-11T09:52:09.918Z,140
2018-01-11T09:53:19.021Z,140
2018-01-11T09:54:28.272Z,140
2018-01-11T09:55:37.097Z,140
2018-01-11T09:56:45.924Z,140
2018-01-11T09:57:54.750Z,140
2018-01-11T09:59:03.853Z,145
2018-01-11T10:00:12.728Z,145
2018-01-11T10:01:21.556Z,145
2018-01-11T10:02:30.378Z,145
2018-01-11T10:03:39.478Z,145
2018-01-11T10:04:48.306Z,145
2018-01-11T10:05:57.184Z,145
2018-01-11T10:07:06.012Z,145
2018-01-11T10:08:14.838Z,145
2018-01-11T10:09:23.664Z,145
2018-01-11T10:10:32.492Z,150
2018-01-11T10:11:41.620Z,150
2018-01-11T10:12:50.447Z,145
2018-01-11T10:13:59.550Z,145
2018-01-11T10:15:08.381Z,150
2018-01-11T10:16:17.207Z,145
2018-01-11T10:17:26.464Z,145
2018-01-11T10:18:35.292Z,150
2018-01-11T10:19:44.119Z,150
2018-01-11T10:20:52.950Z,150
2018-01-11T10:22:01.781Z,150
2018-01-11T10:23:10.610Z,150
2018-01-11T10:24:19.438Z,155
2018-01-11T10:25:28.265Z,155
2018-01-11T10:26:37.091Z,155
2018-01-11T10:27:45.918Z,155
2018-01-11T10:28:54.898Z,155
2018-01-11T10:30:03.724Z,155
2018-01-11T10:31:12.826Z,155
2018-01-11T10:32:21.654Z,155
2018-01-11T10:33:30.482Z,155
2018-01-11T10:34:39.360Z,155
2018-01-11T10:35:48.186Z,155
2018-01-11T10:36:57.013Z,155
2018-01-11T10:38:05.842Z,155
2018-01-11T10:39:14.671Z,155
2018-01-11T10:40:23.548Z,155
2018-01-11T10:41:32.377Z,155
2018-01-11T10:42:41.487Z,155
2018-01-11T10:43:50.314Z,155
2018-01-11T10:44:59.140Z,155
2018-01-11T10:46:08.023Z,155
2018-01-11T10:47:17.128Z,160
2018-01-11T10:48:25.952Z,160
2018-01-11T10:49:34.779Z,160
2018-01-11T10:50:43.605Z,160
2018-01-11T10:51:52.482Z,160
2018-01-11T10:53:01.581Z,160
2018-01-11T10:54:10.409Z,160
2018-01-11T10:55:19.236Z,160
2018-01-11T10:56:28.063Z,160
2018-01-11T10:57:37.317Z,160
2018-01-11T10:58:46.141Z,160
2018-01-11T10:59:54.972Z,160
2018-01-11T11:01:04.077Z,160
2018-01-11T11:02:12.907Z,160
2018-01-11T11:03:22.133Z,160
2018-01-11T11:04:30.962Z,160
2018-01-11T11:05:40.062Z,160
2018-01-11T11:06:48.890Z,160
2018-01-11T11:07:57.724Z,160
2018-01-11T11:09:06.600Z,160
2018-01-11T11:10:15.427Z,160
2018-01-11T11:11:24.257Z,160
2018-01-11T11:12:33.088Z,160
2018-01-11T11:13:41.918Z,160
2018-01-11T11:14:50.896Z,165
2018-01-11T11:15:59.725Z,165
2018-01-11T11:17:08.552Z,165
2018-01-11T11:18:17.380Z,165
2018-01-11T11:19:26.209Z,170
2018-01-11T11:20:35.336Z,170
2018-01-11T11:21:44.165Z,170
2018-01-11T11:22:52.991Z,170
2018-01-11T11:24:02.100Z,170
2018-01-11T11:25:10.929Z,170
2018-01-11T11:26:20.279Z,170
2018-01-11T11:27:29.106Z,170
2018-01-11T11:28:37.933Z,170
2018-01-11T11:29:46.763Z,170
2018-01-11T11:30:55.589Z,170
2018-01-11T11:32:04.742Z,175
2018-01-11T11:33:13.573Z,175
2018-01-11T11:34:22.675Z,175
2018-01-11T11:35:31.502Z,175
2018-01-11T11:36:40.605Z,175
2018-01-11T11:37:49.536Z,175
2018-01-11T11:38:58.642Z,175
2018-01-11T11:40:07.468Z,175
2018-01-11T11:41:16.295Z,175
2018-01-11T11:42:25.122Z,175
2018-01-11T11:43:34.279Z,175
2018-01-11T11:44:43.108Z,175
2018-01-11T11:45:52.210Z,175
2018-01-11T11:47:01.252Z,175
2018-01-11T11:48:10.112Z,175
2018-01-11T11:49:19.128Z,175
2018-01-11T11:50:27.955Z,175
2018-01-11T11:51:37.254Z,175
2018-01-11T11:52:46.407Z,175
2018-01-11T11:53:56.242Z,180
2018-01-11T11:55:05.459Z,180
2018-01-11T11:56:14.655Z,180
2018-01-11T11:57:24.507Z,180
2018-01-11T11:58:34.249Z,180
2018-01-11T11:59:43.360Z,180
2018-01-11T12:00:52.818Z,185
2018-01-11T12:02:01.990Z,190
2018-01-11T12:03:10.846Z,185
2018-01-11T12:04:19.885Z,190
2018-01-11T12:05:29.046Z,190
2018-01-11T12:06:37.953Z,195
2018-01-11T12:07:47.057Z,200
2018-01-11T12:08:56.196Z,200
2018-01-11T12:10:05.044Z,210
2018-01-11T12:11:14.230Z,215
2018-01-11T12:12:23.663Z,220
2018-01-11T12:13:32.552Z,230
2018-01-11T12:14:41.712Z,240
2018-01-11T12:15:50.892Z,245
2018-01-11T12:16:59.747Z,255
2018-01-11T12:18:08.667Z,260
2018-01-11T12:19:17.511Z,270
2018-01-11T12:20:26.340Z,275
2018-01-11T12:21:35.183Z,275
2018-01-11T12:22:44.403Z,270
2018-01-11T12:23:53.556Z,270
2018-01-11T12:25:02.684Z,265
2018-01-11T12:26:12.016Z,260
2018-01-11T12:27:21.238Z,255
2018-01-11T12:28:30.098Z,245
2018-01-11T12:30:08.747Z,240
2018-01-11T12:31:17.596Z,235
2018-01-11T12:32:26.437Z,230
2018-01-11T12:33:35.282Z,225
2018-01-11T12:34:44.120Z,220
2018-01-11T12:35:53.566Z,215
2018-01-11T12:37:02.942Z,215
2018-01-11T12:38:12.255Z,210
2018-01-11T12:39:21.127Z,205
2018-01-11T12:40:30.281Z,205
2018-01-11T12:41:39.155Z,200
2018-01-11T12:42:48.198Z,200
2018-01-11T12:43:57.594Z,200
2018-01-11T12:45:06.672Z,200
2018-01-11T12:46:15.542Z,195
2018-01-11T12:47:24.449Z,195
2018-01-11T12:48:33.765Z,195
2018-01-11T12:49:42.648Z,195
2018-01-11T12:50:51.792Z,195
2018-01-11T12:52:00.621Z,195
2018-01-11T12:53:09.563Z,190
2018-01-11T12:54:18.692Z,190
2018-01-11T12:55:27.525Z,190
2018-01-11T12:56:36.375Z,190
2018-01-11T12:57:45.247Z,190
2018-01-11T12:58:54.226Z,190
2018-01-11T13:00:03.065Z,195
2018-01-11T13:01:11.898Z,195
2018-01-11T13:02:20.728Z,195
2018-01-11T13:03:29.559Z,200
2018-01-11T13:04:38.640Z,210
2018-01-11T13:05:47.470Z,210
2018-01-11T13:06:56.302Z,215
2018-01-11T13:08:05.680Z,220
2018-01-11T13:09:14.513Z,220
2018-01-11T13:10:23.396Z,230
2018-01-11T13:11:32.230Z,235
2018-01-11T13:12:41.063Z,235
2018-01-11T13:13:49.896Z,235
2018-01-11T13:14:58.728Z,235
2018-01-11T13:16:07.710Z,235
2018-01-11T13:17:16.551Z,240
2018-01-11T13:18:25.382Z,240
2018-01-11T13:19:34.215Z,240
2018-01-11T13:20:43.047Z,240
2018-01-11T13:21:52.201Z,245
2018-01-11T13:23:01.030Z,245
2018-01-11T13:24:09.860Z,240
2018-01-11T13:25:18.692Z,245
2018-01-11T13:26:28.072Z,245
2018-01-11T13:27:37.281Z,245
2018-01-11T13:28:46.113Z,250
2018-01-11T13:29:54.944Z,250
2018-01-11T13:31:03.777Z,250
2018-01-11T13:32:12.607Z,255
2018-01-11T13:33:21.442Z,260
2018-01-11T13:34:30.274Z,260
2018-01-11T13:35:39.106Z,265
2018-01-11T13:36:47.939Z,265
2018-01-11T13:37:56.771Z,265
2018-01-11T13:39:05.602Z,265
2018-01-11T13:40:14.712Z,270
2018-01-11T13:41:23.545Z,265
2018-01-11T13:42:32.653Z,265
2018-01-11T13:43:41.485Z,265
2018-01-11T13:44:50.368Z,265
2018-01-11T13:45:59.200Z,265
2018-01-11T13:47:08.032Z,265
2018-01-11T13:48:16.864Z,270
2018-01-11T13:49:25.694Z,265
2018-01-11T13:50:34.825Z,260
2018-01-11T13:51:43.658Z,260
2018-01-11T13:52:52.493Z,255
2018-01-11T13:54:01.324Z,255
2018-01-11T13:55:10.159Z,255
2018-01-11T13:56:19.146Z,250
2018-01-11T13:57:27.981Z,250
2018-01-11T13:58:36.812Z,245
2018-01-11T13:59:45.647Z,245
2018-01-11T14:00:54.481Z,245
2018-01-11T14:02:03.464Z,240
2018-01-11T14:03:12.584Z,240
2018-01-11T14:04:21.420Z,235
2018-01-11T14:05:30.254Z,235
2018-01-11T14:06:39.087Z,235
2018-01-11T14:07:48.021Z,275
2018-01-11T14:08:56.854Z,350
2018-01-11T14:10:05.688Z,425
2018-01-11T14:11:14.525Z,455
2018-01-11T14:12:23.357Z,450
2018-01-11T14:13:32.190Z,445
2018-01-11T14:14:41.028Z,450
2018-01-11T14:15:49.864Z,410
2018-01-11T14:16:58.696Z,355
2018-01-11T14:18:07.533Z,380
2018-01-11T14:19:16.517Z,405
2018-01-11T14:20:25.350Z,380
2018-01-11T14:21:34.186Z,370
2018-01-11T14:22:43.024Z,335
2018-01-11T14:23:51.856Z,315
2018-01-11T14:25:00.791Z,340
2018-01-11T14:26:09.625Z,355
2018-01-11T14:27:18.461Z,360
2018-01-11T14:28:27.295Z,330
2018-01-11T14:29:36.132Z,295
2018-01-11T14:30:45.028Z,290
2018-01-11T14:31:53.865Z,295
2018-01-11T14:33:02.741Z,300
2018-01-11T14:34:11.536Z,290
2018-01-11T14:35:20.393Z,270
2018-01-11T14:36:29.412Z,260
2018-01-11T14:37:38.248Z,235
2018-01-11T14:38:47.084Z,210
2018-01-11T14:39:55.924Z,190
2018-01-11T14:41:04.782Z,155
2018-01-11T14:42:13.642Z,115
2018-01-11T14:43:22.477Z,90
2018-01-11T14:44:31.636Z,75
2018-01-11T14:45:40.745Z,65
2018-01-11T14:46:49.584Z,65
2018-01-11T14:47:58.572Z,60
2018-01-11T14:49:07.412Z,60
2018-01-11T14:50:16.246Z,60
2018-01-11T14:51:25.092Z,55
2018-01-11T14:52:33.925Z,50
2018-01-11T14:53:42.860Z,50
2018-01-11T14:54:51.695Z,50
2018-01-11T14:56:00.529Z,50
2018-01-11T14:57:09.361Z,50
2018-01-11T14:58:18.194Z,45
2018-01-11T14:59:27.029Z,45
2018-01-11T15:00:35.860Z,45
2018-01-11T15:01:44.694Z,40
2018-01-11T15:02:53.531Z,40
2018-01-11T15:04:02.360Z,40
2018-01-11T15:05:11.344Z,35
2018-01-11T15:06:20.177Z,35
2018-01-11T15:07:29.009Z,30
2018-01-11T15:08:37.840Z,30
2018-01-11T15:09:46.678Z,25
2018-01-11T15:10:55.611Z,25
2018-01-11T15:12:04.448Z,20
2018-01-11T15:13:13.280Z,20
2018-01-11T15:14:22.113Z,20
2018-01-11T15:15:30.946Z,20
2018-01-11T15:16:39.830Z,15
2018-01-11T15:17:48.666Z,15
2018-01-11T15:18:57.500Z,15
2018-01-11T15:20:06.334Z,15
2018-01-11T15:21:15.166Z,15
2018-01-11T15:22:23.997Z,15
2018-01-11T15:23:32.833Z,10
2018-01-11T15:24:41.667Z,10
2018-01-11T15:25:50.500Z,10
2018-01-11T15:26:59.334Z,10
2018-01-11T15:28:08.463Z,10
2018-01-11T15:29:17.294Z,5
2018-01-11T15:30:26.123Z,5
2018-01-11T15:31:34.955Z,5
2018-01-11T15:32:43.786Z,5
2018-01-11T15:33:52.777Z,5
2018-01-11T15:35:01.607Z,5
2018-01-11T15:36:10.715Z,5
2018-01-11T15:37:19.556Z,0
2018-01-11T15:38:28.659Z,0
2018-01-11T15:39:37.490Z,0
2018-01-11T15:40:46.321Z,0
2018-01-11T15:41:55.153Z,0
2018-01-11T15:43:03.990Z,0
2018-01-11T15:44:12.820Z,0
2018-01-11T15:45:22.026Z,0
2018-01-11T15:46:30.858Z,0
2018-01-11T15:47:39.967Z,0
2018-01-11T15:48:48.799Z,0
2018-01-11T15:49:57.629Z,0
2018-01-11T15:51:06.462Z,0
2018-01-11T15:52:15.294Z,0
2018-01-11T15:53:24.125Z,0
2018-01-11T15:54:32.958Z,0
2018-01-11T15:55:41.784Z,0
2018-01-11T15:56:50.766Z,0
2018-01-11T15:57:59.601Z,0
2018-01-11T15:59:08.431Z,0
2018-01-11T16:00:17.316Z,0
2018-01-11T16:01:26.097Z,0
2018-01-11T16:02:35.077Z,0
2018-01-11T16:03:43.906Z,0
2018-01-11T16:04:52.738Z,0
2018-01-11T16:06:01.573Z,0
2018-01-11T16:07:10.407Z,0
2018-01-11T16:08:19.334Z,0
2018-01-11T16:09:28.165Z,0
2018-01-11T16:10:36.993Z,0
2018-01-11T16:11:45.825Z,0
2018-01-11T16:12:54.657Z,0
2018-01-11T16:14:03.640Z,0
2018-01-11T16:15:12.477Z,0
2018-01-11T16:16:21.312Z,0
2018-01-11T16:17:30.141Z,0
2018-01-11T16:18:38.973Z,0
2018-01-11T16:19:47.852Z,0
2018-01-11T16:20:56.680Z,0
2018-01-11T16:22:05.512Z,0
2018-01-11T16:23:14.345Z,0
2018-01-11T16:24:23.176Z,0
2018-01-11T16:25:32.306Z,0
2018-01-11T16:26:41.136Z,0
2018-01-11T16:27:50.242Z,0
2018-01-11T16:28:59.074Z,0